Time;durP1;ratioP1;P1;durP2;ratioP2;P2;SDS_P1;SDS_P2;PMS_P1;PMS_P2;Temp;Humidity;BMP_temperature;BMP_pressure;BME280_temperature;BME280_humidity;BME280_pressure;Samples;Min_cycle;Max_cycle;Signal;HPM_P1;HPM_P2
2022/01/09 00:00:17;;;;;;;0.40;0.40;;;4.70;99.90;;;;;;5058287;28;20730;-80
2022/01/09 00:02:46;;;;;;;0.40;0.40;;;4.60;1.00;;;;;;5068336;28;20205;-79
2022/01/09 00:05:15;;;;;;;0.40;0.40;;;4.60;1.00;;;;;;5066786;28;20215;-80
2022/01/09 00:07:44;;;;;;;0.40;0.40;;;4.80;1.00;;;;;;5064412;28;20199;-80
2022/01/09 00:10:12;;;;;;;0.40;0.40;;;4.70;99.90;;;;;;5064069;28;20196;-80
2022/01/09 00:12:42;;;;;;;0.40;0.40;;;4.80;1.00;;;;;;5053307;28;21069;-79
2022/01/09 00:15:11;;;;;;;0.40;0.40;;;4.90;99.90;;;;;;5066320;28;20207;-80
2022/01/09 00:17:40;;;;;;;0.40;0.40;;;4.90;99.90;;;;;;5065090;28;20239;-80
2022/01/09 00:20:11;;;;;;;0.55;0.40;;;4.90;99.90;;;;;;5061141;28;20198;-80
2022/01/09 00:22:42;;;;;;;0.40;0.40;;;4.80;1.00;;;;;;5072871;28;20228;-79
2022/01/09 00:25:12;;;;;;;0.40;0.40;;;4.50;99.90;;;;;;5053994;28;20197;-79
2022/01/09 00:27:41;;;;;;;0.40;0.40;;;4.60;99.90;;;;;;5057804;28;20213;-81
2022/01/09 00:30:12;;;;;;;0.40;0.40;;;4.60;99.90;;;;;;5055506;28;20248;-80
2022/01/09 00:32:40;;;;;;;0.30;0.30;;;4.70;99.90;;;;;;5052632;28;20210;-81
2022/01/09 00:35:10;;;;;;;0.40;0.40;;;4.50;99.90;;;;;;5067952;28;20200;-80
2022/01/09 00:37:38;;;;;;;0.50;0.40;;;4.60;99.90;;;;;;5059370;28;20201;-80
2022/01/09 00:40:09;;;;;;;0.73;0.40;;;4.90;99.90;;;;;;5071934;28;20196;-82
2022/01/09 00:42:37;;;;;;;0.30;0.30;;;4.70;99.90;;;;;;5062874;28;20232;-79
2022/01/09 00:45:08;;;;;;;2.20;1.25;;;4.70;99.90;;;;;;5054127;28;20198;-79
2022/01/09 00:47:37;;;;;;;0.73;0.40;;;4.70;99.90;;;;;;5069875;28;20648;-79
2022/01/09 00:50:06;;;;;;;0.35;0.35;;;4.60;99.90;;;;;;5071457;28;20197;-79
2022/01/09 00:52:34;;;;;;;0.40;0.40;;;4.70;99.90;;;;;;5065370;28;20258;-80
2022/01/09 00:55:04;;;;;;;0.50;0.40;;;5.00;20.30;;;;;;5065383;28;20203;-81
2022/01/09 00:57:33;;;;;;;0.38;0.38;;;4.70;99.90;;;;;;5083440;28;20196;-80
2022/01/09 01:00:02;;;;;;;0.32;0.32;;;4.70;99.90;;;;;;5072768;28;20211;-81
2022/01/09 01:02:31;;;;;;;0.30;0.30;;;4.90;1.00;;;;;;5068085;28;20224;-80
2022/01/09 01:05:00;;;;;;;0.40;0.40;;;4.90;1.00;;;;;;5080646;28;20245;-81
2022/01/09 01:07:28;;;;;;;0.50;0.50;;;4.80;64.90;;;;;;5074678;28;20227;-80
2022/01/09 01:09:57;;;;;;;0.30;0.30;;;4.80;99.90;;;;;;5079536;28;20206;-80
2022/01/09 01:12:25;;;;;;;0.40;0.40;;;4.80;99.90;;;;;;5053291;28;20197;-81
2022/01/09 01:14:54;;;;;;;0.30;0.30;;;4.80;99.90;;;;;;5065386;28;20255;-80
2022/01/09 01:17:23;;;;;;;0.38;0.38;;;4.90;65.50;;;;;;5067730;28;20232;-81
2022/01/09 01:19:53;;;;;;;0.30;0.30;;;4.90;1.00;;;;;;5065755;28;20253;-80
2022/01/09 01:22:30;;;;;;;0.35;0.35;;;4.70;99.90;;;;;;5055406;28;20319;-81
2022/01/09 01:24:59;;;;;;;0.40;0.40;;;4.50;1.00;;;;;;5069045;28;20236;-79
2022/01/09 01:27:29;;;;;;;1.03;0.40;;;4.70;99.90;;;;;;5067331;28;20217;-80
2022/01/09 01:29:57;;;;;;;0.30;0.30;;;4.90;1.00;;;;;;5056303;28;20435;-79
2022/01/09 01:32:26;;;;;;;0.32;0.32;;;4.60;1.00;;;;;;5069073;28;20649;-79
2022/01/09 01:34:56;;;;;;;0.30;0.30;;;4.50;1.00;;;;;;5080274;28;20224;-80
2022/01/09 01:37:24;;;;;;;0.40;0.40;;;4.60;1.00;;;;;;5073941;28;20571;-78
2022/01/09 01:39:53;;;;;;;0.30;0.30;;;4.50;1.00;;;;;;5072522;28;20276;-79
2022/01/09 01:42:21;;;;;;;0.30;0.30;;;4.60;1.00;;;;;;5078044;28;20212;-79
2022/01/09 01:44:51;;;;;;;0.40;0.40;;;4.80;1.00;;;;;;5070209;28;20228;-80
2022/01/09 01:47:20;;;;;;;0.40;0.40;;;4.90;99.90;;;;;;5059881;28;20200;-80
2022/01/09 01:49:49;;;;;;;0.40;0.40;;;4.80;99.90;;;;;;5063967;28;20215;-80
2022/01/09 01:52:28;;;;;;;0.30;0.30;;;4.90;99.90;;;;;;5056061;28;20804;-79
2022/01/09 01:54:56;;;;;;;0.38;0.38;;;4.90;99.90;;;;;;5057719;28;20232;-80
2022/01/09 01:57:24;;;;;;;0.30;0.30;;;4.90;99.90;;;;;;5061722;28;20204;-79
2022/01/09 01:59:52;;;;;;;0.30;0.30;;;4.90;99.90;;;;;;5061851;28;20275;-80
2022/01/09 02:02:22;;;;;;;0.30;0.30;;;4.80;99.90;;;;;;5057158;28;20221;-80
2022/01/09 02:04:50;;;;;;;1.75;0.40;;;5.00;99.90;;;;;;5058551;28;20817;-81
2022/01/09 02:07:20;;;;;;;0.90;0.40;;;4.80;99.90;;;;;;5053716;28;20209;-79
2022/01/09 02:09:48;;;;;;;0.30;0.30;;;4.80;1.00;;;;;;5067453;28;20196;-78
2022/01/09 02:12:17;;;;;;;0.30;0.30;;;4.80;1.00;;;;;;5068714;28;20211;-79
2022/01/09 02:14:47;;;;;;;0.30;0.30;;;5.00;1.00;;;;;;5061045;28;20270;-80
2022/01/09 02:17:20;;;;;;;0.30;0.30;;;4.80;1.00;;;;;;5065350;28;20197;-80
2022/01/09 02:19:54;;;;;;;0.35;0.35;;;4.70;1.00;;;;;;5072580;28;20207;-78
2022/01/09 02:22:23;;;;;;;0.57;0.52;;;4.90;1.00;;;;;;5056501;28;20220;-79
2022/01/09 02:24:52;;;;;;;0.30;0.30;;;5.00;99.90;;;;;;5064165;28;20218;-79
2022/01/09 02:27:20;;;;;;;0.50;0.50;;;4.90;99.90;;;;;;5063938;28;20421;-78
2022/01/09 02:29:49;;;;;;;0.30;0.30;;;5.00;99.90;;;;;;5062120;28;20200;-80
2022/01/09 02:32:17;;;;;;;0.30;0.30;;;5.00;99.90;;;;;;5065413;28;20258;-80
2022/01/09 02:34:47;;;;;;;0.88;0.40;;;5.10;99.90;;;;;;5058246;28;20319;-80
2022/01/09 02:37:17;;;;;;;0.30;0.30;;;5.00;99.90;;;;;;5072171;28;20198;-79
2022/01/09 02:39:45;;;;;;;0.30;0.30;;;4.80;99.90;;;;;;5067660;28;20204;-80
2022/01/09 02:42:22;;;;;;;0.40;0.40;;;5.00;99.90;;;;;;5063956;28;20214;-80
2022/01/09 02:44:51;;;;;;;0.40;0.40;;;4.90;99.90;;;;;;5057069;28;20215;-80
2022/01/09 02:47:20;;;;;;;0.40;0.40;;;4.80;1.00;;;;;;5063170;28;20712;-80
2022/01/09 02:49:51;;;;;;;0.30;0.30;;;4.80;99.90;;;;;;5057945;28;20200;-80
2022/01/09 02:52:32;;;;;;;0.40;0.40;;;4.90;1.00;;;;;;5058633;28;20204;-80
2022/01/09 02:55:11;;;;;;;0.30;0.30;;;5.00;99.90;;;;;;5065683;28;20273;-79
2022/01/09 02:57:40;;;;;;;0.50;0.50;;;4.90;99.90;;;;;;5061422;28;20197;-80
2022/01/09 03:00:10;;;;;;;0.33;0.33;;;4.70;1.00;;;;;;5072140;28;20214;-80
2022/01/09 03:02:39;;;;;;;0.35;0.35;;;4.80;1.00;;;;;;5058657;28;20470;-80
2022/01/09 03:05:08;;;;;;;0.38;0.38;;;5.00;99.90;;;;;;5061195;28;20191;-79
2022/01/09 03:07:38;;;;;;;0.38;0.38;;;5.20;99.90;;;;;;5054450;28;20270;-81
2022/01/09 03:10:08;;;;;;;0.30;0.30;;;5.30;1.00;;;;;;5050691;28;20205;-81
2022/01/09 03:12:36;;;;;;;0.30;0.30;;;5.30;1.00;;;;;;5060591;28;20210;-79
2022/01/09 03:15:06;;;;;;;1.83;0.40;;;5.30;1.00;;;;;;5065464;28;20197;-80
2022/01/09 03:17:35;;;;;;;0.50;0.30;;;5.30;65.00;;;;;;5065829;28;20945;-80
2022/01/09 03:20:06;;;;;;;0.30;0.30;;;5.70;1.00;;;;;;5058997;28;20474;-79
2022/01/09 03:22:34;;;;;;;0.40;0.40;;;5.40;1.00;;;;;;5061372;28;20734;-80
2022/01/09 03:25:05;;;;;;;0.40;0.40;;;5.40;99.90;;;;;;5054780;28;20202;-79
2022/01/09 03:27:33;;;;;;;0.30;0.30;;;5.20;1.00;;;;;;5073567;28;20228;-79
2022/01/09 03:30:02;;;;;;;0.30;0.30;;;5.10;99.90;;;;;;5066707;28;20291;-79
2022/01/09 03:32:30;;;;;;;0.30;0.30;;;5.30;1.00;;;;;;5060155;28;20200;-80
2022/01/09 03:34:58;;;;;;;0.40;0.40;;;5.40;1.00;;;;;;5063659;28;20481;-80
2022/01/09 03:37:26;;;;;;;1.13;0.40;;;5.10;99.90;;;;;;5059584;28;20257;-78
2022/01/09 03:39:55;;;;;;;0.30;0.30;;;5.40;19.70;;;;;;5067531;28;20204;-80
2022/01/09 03:42:24;;;;;;;0.40;0.40;;;5.20;99.90;;;;;;5076759;28;20219;-79
2022/01/09 03:44:52;;;;;;;0.30;0.30;;;5.10;1.00;;;;;;5071458;28;20220;-80
2022/01/09 03:47:20;;;;;;;0.40;0.40;;;5.10;99.90;;;;;;5064415;28;20219;-78
2022/01/09 03:49:50;;;;;;;0.33;0.33;;;5.10;99.90;;;;;;5050196;28;20286;-79
2022/01/09 03:52:18;;;;;;;0.30;0.30;;;5.20;88.20;;;;;;5058405;28;20458;-79
2022/01/09 03:54:47;;;;;;;0.30;0.30;;;5.20;1.00;;;;;;5056208;28;20247;-80
2022/01/09 03:57:15;;;;;;;0.30;0.30;;;5.10;90.70;;;;;;5065605;28;20196;-80
2022/01/09 03:59:44;;;;;;;0.40;0.40;;;5.40;1.00;;;;;;5067195;28;20224;-79
2022/01/09 04:02:13;;;;;;;0.95;0.40;;;5.20;1.00;;;;;;5064448;28;20258;-80
2022/01/09 04:04:41;;;;;;;0.30;0.30;;;5.30;1.00;;;;;;5062700;28;20216;-79
2022/01/09 04:07:11;;;;;;;0.30;0.30;;;5.20;65.50;;;;;;5061802;28;20208;-80
2022/01/09 04:09:40;;;;;;;0.40;0.40;;;5.30;1.00;;;;;;5052393;28;20247;-80
2022/01/09 04:12:15;;;;;;;0.40;0.40;;;5.60;99.90;;;;;;5070292;28;20204;-79
2022/01/09 04:14:46;;;;;;;1.48;0.40;;;5.40;1.00;;;;;;5064484;28;20210;-79
2022/01/09 04:17:22;;;;;;;0.50;0.40;;;5.40;1.00;;;;;;5057675;28;20688;-80
2022/01/09 04:19:50;;;;;;;0.30;0.30;;;5.40;1.00;;;;;;5055563;28;20204;-80
2022/01/09 04:22:19;;;;;;;1.33;0.40;;;5.40;1.00;;;;;;5072278;28;20204;-80
2022/01/09 04:24:47;;;;;;;0.40;0.40;;;5.40;99.90;;;;;;5066447;28;20228;-79
2022/01/09 04:27:15;;;;;;;0.40;0.40;;;5.30;99.90;;;;;;5072213;28;20204;-79
2022/01/09 04:29:44;;;;;;;0.40;0.40;;;5.40;15.80;;;;;;5069323;28;20203;-79
2022/01/09 04:32:13;;;;;;;0.30;0.30;;;5.40;1.00;;;;;;5060729;28;20208;-79
2022/01/09 04:34:41;;;;;;;0.50;0.40;;;5.50;1.00;;;;;;5062169;28;20216;-79
2022/01/09 04:37:10;;;;;;;0.30;0.30;;;5.80;99.90;;;;;;5075718;28;20218;-80
2022/01/09 04:39:38;;;;;;;0.50;0.40;;;5.60;19.60;;;;;;5062386;28;20208;-80
2022/01/09 04:42:07;;;;;;;0.30;0.30;;;5.50;1.00;;;;;;5070715;28;20204;-80
2022/01/09 04:44:35;;;;;;;0.30;0.30;;;5.60;99.90;;;;;;5072168;28;20681;-80
2022/01/09 04:47:10;;;;;;;0.30;0.30;;;5.50;1.00;;;;;;5060789;28;20501;-80
2022/01/09 04:49:41;;;;;;;0.30;0.30;;;5.20;1.00;;;;;;5066922;28;20199;-79
2022/01/09 04:52:13;;;;;;;0.30;0.30;;;5.40;1.00;;;;;;5072253;28;20199;-80
2022/01/09 04:54:41;;;;;;;0.35;0.35;;;5.50;99.90;;;;;;5053563;28;20217;-80
2022/01/09 04:57:10;;;;;;;0.30;0.30;;;5.60;1.00;;;;;;5068893;28;20197;-81
2022/01/09 04:59:38;;;;;;;0.30;0.30;;;5.70;31.40;;;;;;5059988;28;20216;-80
2022/01/09 05:02:08;;;;;;;0.35;0.35;;;5.70;1.00;;;;;;5061174;28;20196;-80
2022/01/09 05:04:36;;;;;;;0.30;0.30;;;5.80;1.00;;;;;;5061805;28;20228;-80
2022/01/09 05:07:05;;;;;;;0.30;0.30;;;6.00;99.90;;;;;;5051783;28;20443;-79
2022/01/09 05:09:33;;;;;;;0.30;0.30;;;5.90;1.00;;;;;;5062175;28;20207;-80
2022/01/09 05:12:01;;;;;;;0.30;0.30;;;5.90;99.90;;;;;;5057400;28;20280;-80
2022/01/09 05:14:30;;;;;;;0.30;0.30;;;6.00;1.00;;;;;;5059858;28;20553;-80
2022/01/09 05:16:58;;;;;;;0.35;0.30;;;6.00;1.00;;;;;;5063222;28;20450;-81
2022/01/09 05:19:31;;;;;;;0.38;0.38;;;6.10;99.90;;;;;;5061411;28;20751;-79
2022/01/09 05:22:00;;;;;;;0.30;0.30;;;6.40;99.90;;;;;;5075799;28;20211;-79
2022/01/09 05:24:28;;;;;;;0.30;0.30;;;6.00;99.90;;;;;;5057640;28;20659;-80
2022/01/09 05:26:56;;;;;;;0.30;0.30;;;5.80;99.90;;;;;;5079005;28;20222;-81
2022/01/09 05:29:24;;;;;;;0.50;0.30;;;5.70;1.00;;;;;;5064001;28;20200;-80
2022/01/09 05:31:53;;;;;;;0.30;0.30;;;5.80;99.90;;;;;;5061571;28;20310;-79
2022/01/09 05:34:21;;;;;;;0.30;0.30;;;5.90;99.90;;;;;;5069313;28;20222;-80
2022/01/09 05:36:50;;;;;;;0.30;0.30;;;5.80;99.90;;;;;;5069267;28;20470;-79
2022/01/09 05:39:19;;;;;;;0.30;0.30;;;5.80;99.90;;;;;;5052725;28;20205;-79
2022/01/09 05:41:48;;;;;;;0.30;0.30;;;5.80;99.90;;;;;;5062681;28;20200;-78
2022/01/09 05:44:17;;;;;;;0.30;0.30;;;5.60;99.90;;;;;;5054660;28;20221;-78
2022/01/09 05:46:45;;;;;;;0.30;0.30;;;5.60;1.00;;;;;;5060822;28;20208;-80
2022/01/09 05:49:14;;;;;;;0.30;0.30;;;5.70;99.90;;;;;;5060062;28;20201;-80
2022/01/09 05:51:42;;;;;;;0.40;0.40;;;5.90;99.90;;;;;;5073863;28;20533;-79
2022/01/09 05:54:12;;;;;;;0.68;0.30;;;5.70;99.90;;;;;;5071697;28;20227;-80
2022/01/09 05:56:40;;;;;;;0.40;0.40;;;5.70;99.90;;;;;;5065979;28;20285;-81
2022/01/09 05:59:08;;;;;;;0.30;0.30;;;5.90;99.90;;;;;;5065796;28;20208;-81
2022/01/09 06:01:36;;;;;;;0.30;0.30;;;5.50;1.00;;;;;;5051318;28;20543;-81
2022/01/09 06:04:05;;;;;;;0.30;0.30;;;5.50;1.00;;;;;;5066060;28;20224;-80
2022/01/09 06:06:34;;;;;;;0.30;0.30;;;5.50;1.00;;;;;;5063821;28;20220;-79
2022/01/09 06:09:02;;;;;;;0.30;0.30;;;5.50;1.00;;;;;;5074416;28;20203;-79
2022/01/09 06:11:32;;;;;;;0.40;0.30;;;5.60;1.00;;;;;;5066754;28;20293;-79
2022/01/09 06:14:00;;;;;;;0.30;0.30;;;5.70;1.00;;;;;;5071364;28;20710;-78
2022/01/09 06:16:28;;;;;;;0.30;0.30;;;5.50;1.00;;;;;;5065615;28;20210;-80
2022/01/09 06:18:56;;;;;;;0.30;0.30;;;5.50;1.00;;;;;;5060008;28;20197;-79
2022/01/09 06:21:26;;;;;;;0.30;0.30;;;5.30;99.90;;;;;;5075186;28;20207;-79
2022/01/09 06:23:54;;;;;;;0.40;0.40;;;5.50;99.90;;;;;;5066832;28;20220;-79
2022/01/09 06:26:22;;;;;;;0.43;0.43;;;5.10;76.20;;;;;;5055153;28;20223;-79
2022/01/09 06:28:52;;;;;;;0.30;0.30;;;4.90;99.90;;;;;;5069953;28;20192;-79
2022/01/09 06:31:20;;;;;;;0.30;0.30;;;5.20;1.00;;;;;;5061157;28;20203;-79
2022/01/09 06:33:48;;;;;;;0.40;0.40;;;4.90;1.00;;;;;;5063859;28;20212;-76
2022/01/09 06:36:16;;;;;;;0.30;0.30;;;4.80;1.00;;;;;;5055658;28;20257;-78
2022/01/09 06:38:44;;;;;;;0.30;0.30;;;5.00;1.00;;;;;;5054778;28;20657;-79
2022/01/09 06:41:13;;;;;;;0.70;0.38;;;4.80;99.90;;;;;;5058473;28;20201;-79
2022/01/09 06:43:41;;;;;;;0.40;0.40;;;5.10;99.90;;;;;;5066054;28;20708;-79
2022/01/09 06:46:11;;;;;;;0.60;0.40;;;5.00;19.20;;;;;;5069741;28;20223;-80
2022/01/09 06:48:39;;;;;;;0.30;0.30;;;5.10;1.00;;;;;;5066824;28;20203;-79
2022/01/09 06:51:07;;;;;;;0.50;0.50;;;5.20;99.90;;;;;;5057590;28;20446;-79
2022/01/09 06:53:36;;;;;;;0.30;0.30;;;5.10;99.90;;;;;;5067369;28;20478;-78
2022/01/09 06:56:04;;;;;;;0.30;0.30;;;5.10;99.90;;;;;;5053923;28;20192;-79
2022/01/09 06:58:33;;;;;;;0.40;0.40;;;5.20;1.00;;;;;;5062124;28;20290;-79
2022/01/09 07:01:01;;;;;;;0.30;0.30;;;5.10;1.00;;;;;;5061943;28;20204;-79
2022/01/09 07:03:30;;;;;;;0.30;0.30;;;5.10;99.90;;;;;;5062580;28;20264;-80
2022/01/09 07:05:59;;;;;;;0.40;0.40;;;5.00;1.00;;;;;;5072829;28;20225;-80
2022/01/09 07:08:28;;;;;;;0.40;0.40;;;4.90;99.90;;;;;;5055094;28;20250;-82
2022/01/09 07:10:57;;;;;;;0.40;0.40;;;5.00;99.90;;;;;;5059625;28;20213;-80
2022/01/09 07:13:25;;;;;;;0.40;0.40;;;5.10;1.00;;;;;;5057833;28;20876;-80
2022/01/09 07:15:53;;;;;;;0.47;0.47;;;5.30;1.00;;;;;;5059009;28;20204;-79
2022/01/09 07:18:21;;;;;;;1.17;0.40;;;5.40;99.90;;;;;;5063185;28;20247;-80
2022/01/09 07:20:51;;;;;;;0.40;0.40;;;5.40;99.90;;;;;;5067423;28;20690;-79
2022/01/09 07:23:19;;;;;;;0.88;0.40;;;5.40;99.90;;;;;;5060608;28;20266;-81
2022/01/09 07:25:47;;;;;;;0.40;0.40;;;5.60;1.00;;;;;;5059803;28;20584;-81
2022/01/09 07:28:15;;;;;;;0.52;0.52;;;5.60;1.00;;;;;;5059297;28;20200;-81
2022/01/09 07:30:44;;;;;;;1.80;0.40;;;5.70;1.00;;;;;;5071581;28;20211;-81
2022/01/09 07:33:12;;;;;;;2.03;0.70;;;5.70;1.00;;;;;;5062208;28;20454;-81
2022/01/09 07:35:40;;;;;;;2.13;0.63;;;5.70;1.00;;;;;;5064660;28;20438;-80
2022/01/09 07:38:10;;;;;;;1.43;0.50;;;5.80;1.00;;;;;;5059076;28;20579;-82
2022/01/09 07:40:43;;;;;;;1.10;0.67;;;5.90;99.90;;;;;;5058477;28;20860;-80
2022/01/09 07:43:11;;;;;;;2.67;0.80;;;5.90;99.90;;;;;;5065883;28;20467;-81
2022/01/09 07:45:39;;;;;;;1.20;0.60;;;5.80;99.90;;;;;;5063561;28;20216;-81
2022/01/09 07:48:08;;;;;;;0.70;0.70;;;5.80;99.90;;;;;;5066440;28;20200;-80
2022/01/09 07:50:36;;;;;;;0.98;0.80;;;5.80;59.90;;;;;;5073404;28;22414;-81
2022/01/09 07:53:04;;;;;;;0.95;0.70;;;5.80;99.90;;;;;;5055490;28;20233;-80
2022/01/09 07:55:34;;;;;;;0.97;0.67;;;5.80;49.50;;;;;;5057903;28;20203;-80
2022/01/09 07:58:02;;;;;;;1.15;0.60;;;5.90;1.00;;;;;;5056269;28;20570;-80
2022/01/09 08:00:31;;;;;;;2.25;0.65;;;6.00;1.00;;;;;;5072750;28;20196;-79
2022/01/09 08:02:59;;;;;;;1.73;0.90;;;6.10;1.00;;;;;;5052536;28;22004;-82
2022/01/09 08:05:27;;;;;;;0.80;0.80;;;6.00;1.00;;;;;;5048455;28;20512;-82
2022/01/09 08:07:56;;;;;;;4.20;0.80;;;6.10;1.00;;;;;;5051278;28;20200;-82
2022/01/09 08:10:24;;;;;;;0.73;0.73;;;6.20;1.00;;;;;;5055700;28;20524;-81
2022/01/09 08:12:53;;;;;;;1.20;0.75;;;6.10;1.00;;;;;;5067350;28;20258;-80
2022/01/09 08:15:22;;;;;;;3.50;0.65;;;6.10;1.00;;;;;;5052541;28;20246;-81
2022/01/09 08:17:50;;;;;;;1.05;0.77;;;6.00;1.00;;;;;;5060347;28;20204;-82
2022/01/09 08:20:18;;;;;;;0.95;0.50;;;6.10;1.00;;;;;;5050889;28;20304;-80
2022/01/09 08:22:47;;;;;;;1.48;0.88;;;6.20;1.00;;;;;;5064334;28;20204;-81
2022/01/09 08:25:16;;;;;;;0.60;0.60;;;6.20;1.00;;;;;;5055202;28;20567;-80
2022/01/09 08:27:46;;;;;;;0.70;0.70;;;6.20;1.00;;;;;;5059332;28;20221;-80
2022/01/09 08:30:18;;;;;;;0.60;0.50;;;6.30;1.00;;;;;;5049071;28;20213;-80
2022/01/09 08:32:46;;;;;;;2.40;1.10;;;6.20;1.00;;;;;;5049697;28;20201;-80
2022/01/09 08:35:15;;;;;;;0.70;0.67;;;6.20;1.00;;;;;;5052786;28;20963;-84
2022/01/09 08:37:44;;;;;;;2.20;0.80;;;6.10;1.00;;;;;;5048825;28;20943;-81
2022/01/09 08:40:17;;;;;;;2.10;0.70;;;6.20;1.00;;;;;;5046701;28;20501;-80
2022/01/09 08:42:45;;;;;;;2.77;1.00;;;6.20;1.00;;;;;;5058732;28;20514;-79
2022/01/09 08:45:15;;;;;;;1.03;0.60;;;6.30;99.90;;;;;;5054098;28;20458;-81
2022/01/09 08:47:44;;;;;;;5.47;0.70;;;6.50;1.00;;;;;;5048793;28;21075;-82
2022/01/09 08:50:14;;;;;;;1.13;0.60;;;6.60;99.90;;;;;;5059388;28;20444;-80
2022/01/09 08:52:42;;;;;;;2.33;0.82;;;6.50;99.90;;;;;;5050270;28;20548;-80
2022/01/09 08:55:11;;;;;;;3.88;0.60;;;6.50;99.90;;;;;;5051111;28;20202;-80
2022/01/09 08:57:39;;;;;;;3.17;0.88;;;6.40;99.90;;;;;;5050403;28;20282;-81
2022/01/09 09:00:09;;;;;;;3.37;2.00;;;6.30;99.90;;;;;;5053438;28;20197;-81
2022/01/09 09:02:41;;;;;;;1.20;0.80;;;6.40;1.00;;;;;;5055960;28;20451;-81
2022/01/09 09:05:09;;;;;;;2.75;0.90;;;6.40;1.00;;;;;;5054250;28;20292;-80
2022/01/09 09:07:38;;;;;;;4.35;0.80;;;6.40;1.00;;;;;;5058779;28;20243;-81
2022/01/09 09:10:07;;;;;;;4.22;0.80;;;6.50;1.00;;;;;;5050230;28;20280;-81
2022/01/09 09:12:36;;;;;;;1.93;0.60;;;6.50;1.00;;;;;;5054543;28;20185;-80
2022/01/09 09:15:06;;;;;;;1.60;0.60;;;6.50;1.00;;;;;;5060443;28;20480;-81
2022/01/09 09:17:34;;;;;;;2.28;0.70;;;6.60;1.00;;;;;;5062203;28;20497;-81
2022/01/09 09:20:05;;;;;;;1.80;0.50;;;6.70;1.00;;;;;;5060114;28;20192;-81
2022/01/09 09:22:36;;;;;;;1.33;0.70;;;6.60;1.00;;;;;;5057150;28;20201;-81
2022/01/09 09:25:06;;;;;;;3.25;0.85;;;6.70;1.00;;;;;;5069877;28;20466;-81
2022/01/09 09:27:34;;;;;;;1.63;0.70;;;6.40;99.90;;;;;;5053329;28;20216;-80
2022/01/09 09:30:04;;;;;;;1.27;0.63;;;6.40;99.90;;;;;;5059641;28;20664;-79
2022/01/09 09:32:33;;;;;;;2.97;1.00;;;6.40;1.00;;;;;;5051866;28;20509;-81
2022/01/09 09:35:02;;;;;;;2.75;1.10;;;6.40;1.00;;;;;;5051395;28;20708;-81
2022/01/09 09:37:32;;;;;;;1.87;0.87;;;6.50;1.00;;;;;;5059256;28;20192;-78
2022/01/09 09:40:00;;;;;;;2.47;0.80;;;6.60;99.90;;;;;;5056101;28;20473;-81
2022/01/09 09:42:28;;;;;;;1.43;0.63;;;6.80;99.90;;;;;;5058013;28;20471;-81
2022/01/09 09:45:00;;;;;;;0.80;0.60;;;6.80;99.90;;;;;;5051783;28;20471;-80
2022/01/09 09:47:29;;;;;;;1.53;0.80;;;6.90;99.90;;;;;;5061445;28;20571;-81
2022/01/09 09:49:58;;;;;;;1.90;1.13;;;7.10;99.90;;;;;;5055275;28;20517;-81
2022/01/09 09:52:26;;;;;;;1.43;0.70;;;7.20;99.90;;;;;;5069233;28;20453;-80
2022/01/09 09:54:56;;;;;;;2.23;0.70;;;7.20;99.90;;;;;;5055790;28;20463;-79
2022/01/09 09:57:25;;;;;;;5.17;0.70;;;7.10;99.90;;;;;;5052358;28;20460;-81
2022/01/09 10:00:01;;;;;;;1.23;0.70;;;7.20;99.90;;;;;;5054831;28;20463;-79
2022/01/09 10:02:42;;;;;;;2.10;1.00;;;7.20;99.90;;;;;;5057801;28;20280;-81
2022/01/09 10:05:13;;;;;;;1.87;1.13;;;7.10;99.90;;;;;;5065506;28;20461;-80
2022/01/09 10:07:41;;;;;;;3.00;1.13;;;7.10;99.90;;;;;;5058037;28;20476;-80
2022/01/09 10:10:14;;;;;;;1.93;0.90;;;7.20;99.90;;;;;;5062824;28;20819;-82
2022/01/09 10:12:43;;;;;;;3.53;0.93;;;7.30;99.90;;;;;;5058653;28;20451;-80
2022/01/09 10:15:14;;;;;;;5.50;0.97;;;7.40;99.90;;;;;;5058398;28;20456;-82
2022/01/09 10:17:44;;;;;;;2.67;0.60;;;7.40;99.90;;;;;;5057846;28;20526;-81
2022/01/09 10:20:18;;;;;;;0.87;0.70;;;7.40;99.90;;;;;;5057754;28;20451;-81
2022/01/09 10:22:48;;;;;;;3.60;0.90;;;7.50;99.90;;;;;;5071068;28;20470;-82
2022/01/09 10:25:27;;;;;;;3.97;0.93;;;7.60;99.90;;;;;;5060525;28;20451;-80
2022/01/09 10:27:59;;;;;;;0.97;0.53;;;7.70;99.90;;;;;;5075355;28;20868;-79
2022/01/09 10:30:30;;;;;;;2.00;0.67;;;7.80;99.90;;;;;;5064580;28;21303;-81
2022/01/09 10:32:59;;;;;;;3.23;0.83;;;8.00;99.90;;;;;;5058184;28;20478;-81
2022/01/09 10:35:29;;;;;;;1.90;0.50;;;8.10;99.90;;;;;;5056165;28;20562;-80
2022/01/09 10:38:16;;;;;;;1.13;0.67;;;7.80;99.90;;;;;;5056102;28;20969;-80
2022/01/09 10:40:49;;;;;;;1.83;0.70;;;7.10;99.90;;;;;;5057713;28;20462;-80
2022/01/09 10:43:19;;;;;;;7.70;0.63;;;6.80;99.90;;;;;;5069140;28;20515;-79
2022/01/09 10:45:50;;;;;;;1.07;0.80;;;6.80;99.90;;;;;;5054469;28;20462;-80
2022/01/09 10:48:21;;;;;;;5.03;0.90;;;6.80;99.90;;;;;;5068235;28;20484;-81
2022/01/09 10:50:51;;;;;;;1.90;0.90;;;6.80;1.00;;;;;;5058056;28;20455;-81
2022/01/09 10:53:25;;;;;;;2.20;0.73;;;7.10;1.00;;;;;;5068217;28;20529;-82
2022/01/09 10:56:14;;;;;;;3.83;0.90;;;7.40;1.00;;;;;;5061051;28;21010;-83
2022/01/09 10:58:44;;;;;;;3.97;0.80;;;7.90;1.00;;;;;;5058732;28;20458;-81
2022/01/09 11:01:21;;;;;;;1.60;0.60;;;8.20;99.90;;;;;;5055308;28;20468;-81
2022/01/09 11:03:51;;;;;;;1.20;0.77;;;8.50;99.90;;;;;;5066519;28;20900;-82
2022/01/09 11:06:21;;;;;;;1.87;0.60;;;8.90;99.90;;;;;;5060920;28;20445;-81
2022/01/09 11:08:50;;;;;;;1.27;0.60;;;9.10;99.90;;;;;;5051305;28;20482;-81
2022/01/09 11:11:26;;;;;;;2.15;0.60;;;9.20;99.90;;;;;;5050925;28;20458;-82
2022/01/09 11:13:56;;;;;;;3.80;0.90;;;9.10;99.90;;;;;;5061830;28;20220;-81
2022/01/09 11:16:36;;;;;;;0.80;0.75;;;8.90;99.90;;;;;;5056262;28;20505;-80
2022/01/09 11:19:07;;;;;;;1.23;0.77;;;8.60;99.90;;;;;;5057307;28;20871;-80
2022/01/09 11:21:37;;;;;;;2.90;0.70;;;8.30;99.90;;;;;;5056537;28;20999;-81
2022/01/09 11:24:53;;;;;;;1.87;0.93;;;8.20;99.90;;;;;;5062056;28;20475;-81
2022/01/09 11:27:28;;;;;;;0.77;0.73;;;8.20;99.90;;;;;;5061881;28;20478;-81
2022/01/09 11:30:06;;;;;;;0.60;0.60;;;8.10;99.90;;;;;;5076291;28;20645;-80
2022/01/09 11:32:56;;;;;;;2.30;1.20;;;8.20;99.90;;;;;;5061371;28;20500;-81
2022/01/09 11:35:35;;;;;;;0.70;0.70;;;8.40;99.90;;;;;;5058569;28;20494;-80
2022/01/09 11:38:13;;;;;;;2.13;0.70;;;8.60;99.90;;;;;;5059583;28;20450;-80
2022/01/09 11:40:41;;;;;;;0.67;0.67;;;8.60;99.90;;;;;;5062341;28;20503;-81
2022/01/09 11:43:14;;;;;;;0.93;0.57;;;8.80;99.90;;;;;;5059570;28;20485;-81
2022/01/09 11:45:44;;;;;;;0.87;0.67;;;8.80;99.90;;;;;;5055370;28;20449;-80
2022/01/09 11:48:14;;;;;;;0.77;0.50;;;8.80;99.90;;;;;;5059679;28;20503;-80
2022/01/09 11:51:14;;;;;;;1.33;0.80;;;8.70;99.90;;;;;;5071988;28;21116;-80
2022/01/09 11:54:04;;;;;;;1.43;0.60;;;8.60;99.90;;;;;;5062575;28;21012;-80
2022/01/09 11:56:54;;;;;;;0.50;0.50;;;8.70;99.90;;;;;;5054101;28;20596;-80
2022/01/09 11:59:51;;;;;;;1.35;0.60;;;8.70;99.90;;;;;;5054127;28;20444;-80
2022/01/09 12:02:34;;;;;;;1.00;0.50;;;8.50;99.90;;;;;;5061106;28;21321;-81
2022/01/09 12:05:06;;;;;;;0.90;0.60;;;8.30;99.90;;;;;;5053198;28;20487;-80
2022/01/09 12:08:05;;;;;;;0.50;0.50;;;8.00;99.90;;;;;;5070914;28;20987;-80
2022/01/09 12:10:49;;;;;;;1.90;0.77;;;8.20;99.90;;;;;;5061623;28;20492;-80
2022/01/09 12:13:42;;;;;;;0.67;0.50;;;8.20;99.90;;;;;;5069097;28;20477;-81
2022/01/09 12:16:47;;;;;;;0.67;0.67;;;8.20;99.90;;;;;;5064281;28;20479;-80
2022/01/09 12:19:52;;;;;;;2.73;0.80;;;8.10;99.90;;;;;;5054554;28;20449;-80
2022/01/09 12:22:54;;;;;;;1.27;0.97;;;8.20;99.90;;;;;;5046697;28;20454;-79
2022/01/09 12:25:50;;;;;;;3.58;1.00;;;8.20;99.90;;;;;;5055528;28;20431;-79
2022/01/09 12:28:22;;;;;;;0.97;0.60;;;8.00;99.90;;;;;;5054082;28;20299;-80
2022/01/09 12:30:57;;;;;;;2.00;0.80;;;7.90;99.90;;;;;;5054391;28;20466;-81
2022/01/09 12:33:50;;;;;;;1.97;0.60;;;8.00;99.90;;;;;;5057455;28;20471;-81
2022/01/09 12:36:24;;;;;;;1.27;0.60;;;8.00;99.90;;;;;;5056783;28;20471;-82
2022/01/09 12:38:57;;;;;;;1.20;0.60;;;7.90;99.90;;;;;;5056787;28;20483;-81
2022/01/09 12:41:28;;;;;;;1.40;1.10;;;8.00;99.90;;;;;;5053830;28;20626;-82
2022/01/09 12:44:00;;;;;;;1.20;0.83;;;8.00;99.90;;;;;;5054032;28;20223;-80
2022/01/09 12:46:31;;;;;;;0.73;0.60;;;8.20;99.90;;;;;;5064207;28;20558;-82
2022/01/09 12:49:02;;;;;;;0.60;0.60;;;8.20;99.90;;;;;;5064648;28;20495;-82
2022/01/09 12:51:31;;;;;;;2.77;0.70;;;8.10;99.90;;;;;;5063559;28;20469;-81
2022/01/09 12:54:02;;;;;;;1.17;0.90;;;8.00;99.90;;;;;;5052675;28;20530;-81
2022/01/09 12:56:35;;;;;;;3.30;0.57;;;8.00;99.90;;;;;;5053753;28;20463;-81
2022/01/09 12:59:07;;;;;;;0.87;0.70;;;8.00;99.90;;;;;;5061751;28;20482;-80
2022/01/09 13:01:40;;;;;;;1.30;0.73;;;7.70;99.90;;;;;;5054968;28;20451;-80
2022/01/09 13:04:14;;;;;;;2.60;0.70;;;7.50;99.90;;;;;;5057601;28;20905;-80
2022/01/09 13:06:44;;;;;;;2.10;0.90;;;7.30;99.90;;;;;;5057734;28;20489;-82
2022/01/09 13:09:17;;;;;;;0.50;0.50;;;7.20;99.90;;;;;;5066268;28;20467;-80
2022/01/09 13:11:53;;;;;;;1.37;0.73;;;7.50;99.90;;;;;;5062935;28;20454;-81
2022/01/09 13:14:34;;;;;;;2.90;1.40;;;7.60;99.90;;;;;;5056990;28;20467;-81
2022/01/09 13:17:05;;;;;;;1.07;0.63;;;7.70;99.90;;;;;;5065448;28;20993;-81
2022/01/09 13:19:54;;;;;;;1.03;0.67;;;7.80;99.90;;;;;;5064238;28;20509;-81